This is the latest recevied weather packets stored in our database for station/object KR0L-13. If no packets are shown the sender has not sent any weather packets the latest 10 day(s).
| Time | Temp. | Humidity | Pressure | Rain* | Wind** | Luminosity | Snow |
|---|---|---|---|---|---|---|---|
| 1777714221 | 3.33° C | 88% | 1021 hPa | 0 mm | - | - | - |
| 1777713621 | 3.33° C | 90% | 1020.8 hPa | 0 mm | - | - | - |
| 1777713021 | 3.89° C | 88% | 1020.9 hPa | 0 mm | - | - | - |
| 1777712421 | 4.44° C | 89% | 1020.9 hPa | 0 mm | - | - | - |
| 1777711821 | 4.44° C | 88% | 1020.9 hPa | 0 mm | - | - | - |
| 1777711221 | 5° C | 85% | 1020.8 hPa | 0 mm | - | - | - |
| 1777710621 | 5.56° C | 86% | 1020.8 hPa | 0 mm | - | - | - |
| 1777710021 | 5.56° C | 85% | 1020.8 hPa | 0 mm | - | - | - |
| 1777709421 | 6.11° C | 84% | 1020.8 hPa | 0 mm | - | - | - |
| 1777708821 | 6.11° C | 81% | 1020.9 hPa | 0 mm | - | - | - |
| 1777708221 | 7.22° C | 80% | 1021.1 hPa | 0 mm | - | - | - |
| 1777707621 | 7.78° C | 79% | 1021 hPa | 0 mm | - | - | - |
| 1777707021 | 8.33° C | 78% | 1021 hPa | 0 mm | - | - | - |
| 1777706421 | 8.89° C | 77% | 1021 hPa | 0 mm | - | - | - |
| 1777705821 | 9.44° C | 76% | 1021.1 hPa | 0 mm | - | - | - |
| 1777705221 | 10° C | 75% | 1021.2 hPa | 0 mm | - | - | - |
| 1777704621 | 10° C | 76% | 1021.2 hPa | 0 mm | - | - | - |
| 1777704021 | 10.56° C | 74% | 1021.3 hPa | 0 mm | - | - | - |
| 1777703421 | 11.11° C | 71% | 1021.4 hPa | 0 mm | - | - | - |
| 1777702820 | 11.11° C | 68% | 1021.1 hPa | 0 mm | - | - | - |
| 1777702220 | 10.56° C | 71% | 1020.8 hPa | 0 mm | - | - | - |
| 1777701620 | 10° C | 75% | 1020.5 hPa | 0 mm | - | - | - |
| 1777701020 | 10.56° C | 73% | 1020.1 hPa | 0 mm | - | - | - |
| 1777700420 | 10.56° C | 72% | 1020.8 hPa | 0 mm | - | - | - |
| 1777699821 | 10° C | 74% | 1020.8 hPa | 0 mm | - | - | - |
* Rain latest hour (hover to see other rain measurements)
** Current wind speed in m/s (hover to see current wind gust speed)